Time;durP1;ratioP1;P1;durP2;ratioP2;P2;SDS_P1;SDS_P2;PMS_P1;PMS_P2;Temp;Humidity;BMP_temperature;BMP_pressure;BME280_temperature;BME280_humidity;BME280_pressure;Samples;Min_cycle;Max_cycle;Signal;HPM_P1;HPM_P2
2023/10/12 00:01:33;;;;;;;;;;;;;;;;;;10568567;28;19924;-70
2023/10/12 00:06:37;;;;;;;;;;;;;;;;;;10563929;28;20011;-71
2023/10/12 00:11:40;;;;;;;;;;;;;;;;;;10566208;28;19931;-71
2023/10/12 00:16:43;;;;;;;;;;;;;;;;;;10564740;28;20006;-71
2023/10/12 00:21:46;;;;;;;;;;;;;;;;;;10563417;27;19931;-71
2023/10/12 00:26:49;;;;;;;;;;;;;;;;;;10563343;28;20294;-72
2023/10/12 00:31:52;;;;;;;;;;;;;;;;;;10563450;28;19934;-71
2023/10/12 00:36:57;;;;;;;;;;;;;;;;;;10569820;27;20051;-71
2023/10/12 00:42:00;;;;;;;;;;;;;;;;;;10557870;28;20048;-71
2023/10/12 00:47:12;;;;;;;;;;;;;;;;;;10561410;28;19924;-71
2023/10/12 00:52:23;;;;;;;;;;;;;;;;;;10560300;28;19928;-71
2023/10/12 00:57:25;;;;;;;;;;;;;;;;;;10568653;28;20031;-70
2023/10/12 01:02:36;;;;;;;;;;;;;;;;;;10563642;28;19927;-71
2023/10/12 01:07:42;;;;;;;;;;;;;;;;;;10559330;28;19936;-70
2023/10/12 01:12:45;;;;;;;;;;;;;;;;;;10563031;28;20371;-74
2023/10/12 01:17:51;;;;;;;;;;;;;;;;;;10566107;28;19924;-71
2023/10/12 01:22:57;;;;;;;;;;;;;;;;;;10565800;28;19924;-71
2023/10/12 01:28:04;;;;;;;;;;;;;;;;;;10561076;28;19932;-71
2023/10/12 01:33:06;;;;;;;;;;;;;;;;;;10565872;28;20427;-70
2023/10/12 01:38:09;;;;;;;;;;;;;;;;;;10565351;28;19928;-73
2023/10/12 01:43:13;;;;;;;;;;;;;;;;;;10562539;28;20026;-70
2023/10/12 01:48:22;;;;;;;;;;;;;;;;;;10563806;28;20014;-71
2023/10/12 01:53:26;;;;;;;;;;;;;;;;;;10559584;28;20393;-69
2023/10/12 01:58:28;;;;;;;;;;;;;;;;;;10559873;28;19923;-70
2023/10/12 02:03:32;;;;;;;;;;;;;;;;;;10564311;28;19928;-69
2023/10/12 02:08:39;;;;;;;;;;;;;;;;;;10565253;28;19939;-69
2023/10/12 02:13:47;;;;;;;;;;;;;;;;;;10557963;28;19934;-70
2023/10/12 02:18:50;;;;;;;;;;;;;;;;;;10564501;28;19931;-69
2023/10/12 02:23:58;;;;;;;;;;;;;;;;;;10565421;28;19967;-70
2023/10/12 02:29:12;;;;;;;;;;;;;;;;;;10563303;28;20011;-70
2023/10/12 02:34:16;;;;;;;;;;;;;;;;;;10566074;28;19931;-71
2023/10/12 02:39:21;;;;;;;;;;;;;;;;;;10569850;28;19924;-70
2023/10/12 02:44:23;;;;;;;;;;;;;;;;;;10566742;28;19923;-70
2023/10/12 02:49:26;;;;;;;;;;;;;;;;;;10548899;28;20011;-71
2023/10/12 02:54:38;;;;;;;;;;;;;;;;;;10570068;28;19939;-71
2023/10/12 02:59:42;;;;;;;;;;;;;;;;;;10572674;28;20024;-70
2023/10/12 03:04:45;;;;;;;;;;;;;;;;;;10571129;28;19930;-71
2023/10/12 03:09:51;;;;;;;;;;;;;;;;;;10569611;28;20007;-75
2023/10/12 03:14:54;;;;;;;;;;;;;;;;;;10566177;28;19923;-70
2023/10/12 03:19:58;;;;;;;;;;;;;;;;;;10569132;28;20012;-70
2023/10/12 03:25:13;;;;;;;;;;;;;;;;;;10563731;28;19925;-75
2023/10/12 03:30:17;;;;;;;;;;;;;;;;;;10570936;28;19967;-76
2023/10/12 03:35:25;;;;;;;;;;;;;;;;;;10566243;28;19928;-70
2023/10/12 03:46:00;;;;;;;;;;;;;;;;;;10560237;28;19928;-70
2023/10/12 03:51:23;;;;;;;;;;;;;;;;;;10559846;28;19973;-71
2023/10/12 03:56:39;;;;;;;;;;;;;;;;;;10563215;28;19924;-70
2023/10/12 04:01:41;;;;;;;;;;;;;;;;;;10570834;28;19924;-69
2023/10/12 04:07:16;;;;;;;;;;;;;;;;;;10575347;27;20404;-69
2023/10/12 04:12:36;;;;;;;;;;;;;;;;;;10569386;28;19977;-69
2023/10/12 04:17:47;;;;;;;;;;;;;;;;;;10569736;28;19928;-70
2023/10/12 04:28:18;;;;;;;;;;;;;;;;;;10539073;28;20022;-70
2023/10/12 04:33:24;;;;;;;;;;;;;;;;;;10562706;28;20393;-72
2023/10/12 04:38:57;;;;;;;;;;;;;;;;;;10564209;27;19924;-69
2023/10/12 04:43:53;;;;;;;;;;;;;;;;;;10562930;28;19967;-69
2023/10/12 04:49:39;;;;;;;;;;;;;;;;;;10566325;28;19932;-69
2023/10/12 04:54:24;;;;;;;;;;;;;;;;;;10560229;28;19934;-69
2023/10/12 04:59:29;;;;;;;;;;;;;;;;;;10561980;28;19932;-70
2023/10/12 05:04:39;;;;;;;;;;;;;;;;;;10557009;28;19976;-69
2023/10/12 05:09:50;;;;;;;;;;;;;;;;;;10563235;28;19923;-69
2023/10/12 05:14:55;;;;;;;;;;;;;;;;;;10562853;27;20023;-69
2023/10/12 05:19:57;;;;;;;;;;;;;;;;;;10558869;28;19924;-70
2023/10/12 05:25:00;;;;;;;;;;;;;;;;;;10559422;28;20018;-70
2023/10/12 05:30:05;;;;;;;;;;;;;;;;;;10561296;28;20283;-71
2023/10/12 05:35:15;;;;;;;;;;;;;;;;;;10559529;28;19927;-71
2023/10/12 05:40:18;;;;;;;;;;;;;;;;;;10564881;28;20039;-73
2023/10/12 05:45:21;;;;;;;;;;;;;;;;;;10561946;28;19923;-70
2023/10/12 05:50:24;;;;;;;;;;;;;;;;;;10559058;28;20465;-70
2023/10/12 05:55:28;;;;;;;;;;;;;;;;;;10564815;28;20034;-69
2023/10/12 06:00:35;;;;;;;;;;;;;;;;;;10571430;28;19940;-69
2023/10/12 06:05:38;;;;;;;;;;;;;;;;;;10570957;27;19924;-69
2023/10/12 06:10:42;;;;;;;;;;;;;;;;;;10563572;28;20014;-70
2023/10/12 06:15:49;;;;;;;;;;;;;;;;;;10563058;28;20409;-69
2023/10/12 06:20:58;;;;;;;;;;;;;;;;;;10568072;28;19924;-70
2023/10/12 06:26:01;;;;;;;;;;;;;;;;;;10568934;27;19923;-69
2023/10/12 06:31:09;;;;;;;;;;;;;;;;;;10561711;27;20037;-72
2023/10/12 06:36:16;;;;;;;;;;;;;;;;;;10563805;28;20439;-70
2023/10/12 06:41:58;;;;;;;;;;;;;;;;;;10570383;27;19923;-72
2023/10/12 06:46:53;;;;;;;;;;;;;;;;;;10569135;28;19924;-70
2023/10/12 06:52:00;;;;;;;;;;;;;;;;;;10569274;28;19928;-71
2023/10/12 07:02:27;;;;;;;;;;;;;;;;;;10564050;27;19955;-71
2023/10/12 07:07:36;;;;;;;;;;;;;;;;;;10562848;27;19924;-73
2023/10/12 07:12:42;;;;;;;;;;;;;;;;;;10570320;28;20464;-74
2023/10/12 07:17:48;;;;;;;;;;;;;;;;;;10566124;28;19936;-70
2023/10/12 07:22:51;;;;;;;;;;;;;;;;;;10561782;28;19989;-73
2023/10/12 07:27:59;;;;;;;;;;;;;;;;;;10568948;28;20014;-72
2023/10/12 07:33:04;;;;;;;;;;;;;;;;;;10565155;27;20396;-71
2023/10/12 07:38:12;;;;;;;;;;;;;;;;;;10569891;28;19931;-71
2023/10/12 07:43:18;;;;;;;;;;;;;;;;;;10559334;27;20022;-72
2023/10/12 07:48:29;;;;;;;;;;;;;;;;;;10567550;27;20023;-72
2023/10/12 07:53:37;;;;;;;;;;;;;;;;;;10563662;27;20382;-76
2023/10/12 07:58:39;;;;;;;;;;;;;;;;;;10563279;27;19932;-71
2023/10/12 08:03:50;;;;;;;;;;;;;;;;;;10565361;28;19938;-73
2023/10/12 08:09:02;;;;;;;;;;;;;;;;;;10566074;27;21369;-73
2023/10/12 08:14:19;;;;;;;;;;;;;;;;;;10559758;27;19973;-72
2023/10/12 08:19:29;;;;;;;;;;;;;;;;;;10560006;27;20029;-72
2023/10/12 08:24:36;;;;;;;;;;;;;;;;;;10553813;28;20031;-72
2023/10/12 08:35:32;;;;;;;;;;;;;;;;;;10555007;27;20023;-71
2023/10/12 08:40:40;;;;;;;;;;;;;;;;;;10560527;27;20042;-72
2023/10/12 08:45:42;;;;;;;;;;;;;;;;;;10561427;28;19928;-72
2023/10/12 08:51:06;;;;;;;;;;;;;;;;;;10559744;28;19951;-72
2023/10/12 08:56:11;;;;;;;;;;;;;;;;;;10555716;27;19928;-72
2023/10/12 09:01:22;;;;;;;;;;;;;;;;;;10555707;28;19928;-73
2023/10/12 09:06:53;;;;;;;;;;;;;;;;;;10550809;28;19965;-73
2023/10/12 09:11:59;;;;;;;;;;;;;;;;;;10554229;28;19928;-72
2023/10/12 09:17:04;;;;;;;;;;;;;;;;;;10562168;28;19967;-71
2023/10/12 09:22:07;;;;;;;;;;;;;;;;;;10563983;27;19963;-71
2023/10/12 09:27:26;;;;;;;;;;;;;;;;;;10562606;28;19939;-71
2023/10/12 09:37:08;;;;;;;;;;;;;;;;;;10557951;27;20948;-73
2023/10/12 09:42:14;;;;;;;;;;;;;;;;;;10547994;28;20328;-73
2023/10/12 09:47:16;;;;;;;;;;;;;;;;;;10554845;28;20011;-73
2023/10/12 09:52:21;;;;;;;;;;;;;;;;;;10551275;28;19924;-73
2023/10/12 09:57:26;;;;;;;;;;;;;;;;;;10548854;28;20332;-73
2023/10/12 10:02:29;;;;;;;;;;;;;;;;;;10551030;28;19924;-73
2023/10/12 10:07:36;;;;;;;;;;;;;;;;;;10539711;28;20292;-71
2023/10/12 10:12:42;;;;;;;;;;;;;;;;;;10541260;28;19924;-71
2023/10/12 10:17:47;;;;;;;;;;;;;;;;;;10544200;28;19920;-72
2023/10/12 10:22:56;;;;;;;;;;;;;;;;;;10542535;28;19924;-72
2023/10/12 10:27:59;;;;;;;;;;;;;;;;;;10539053;28;19935;-74
2023/10/12 10:33:01;;;;;;;;;;;;;;;;;;10542395;28;19920;-71
2023/10/12 10:38:04;;;;;;;;;;;;;;;;;;10535437;28;19946;-72
2023/10/12 10:43:08;;;;;;;;;;;;;;;;;;10536893;28;20106;-72
2023/10/12 10:48:13;;;;;;;;;;;;;;;;;;10521656;28;19931;-73
2023/10/12 10:53:37;;;;;;;;;;;;;;;;;;10518175;28;19924;-73
2023/10/12 10:58:40;;;;;;;;;;;;;;;;;;10511614;28;19920;-73
2023/10/12 11:03:43;;;;;;;;;;;;;;;;;;10510672;28;20396;-74
2023/10/12 11:08:45;;;;;;;;;;;;;;;;;;10503980;28;19939;-73
2023/10/12 11:13:47;;;;;;;;;;;;;;;;;;10520340;28;19920;-73
2023/10/12 11:18:51;;;;;;;;;;;;;;;;;;10510019;28;20078;-75
2023/10/12 11:23:54;;;;;;;;;;;;;;;;;;10516514;28;19930;-74
2023/10/12 11:28:57;;;;;;;;;;;;;;;;;;10503235;28;19921;-75
2023/10/12 11:34:07;;;;;;;;;;;;;;;;;;10510229;28;20419;-73
2023/10/12 11:39:16;;;;;;;;;;;;;;;;;;10517267;28;19964;-75
2023/10/12 11:44:19;;;;;;;;;;;;;;;;;;10508559;28;20375;-75
2023/10/12 11:49:21;;;;;;;;;;;;;;;;;;10516102;28;20041;-75
2023/10/12 11:54:32;;;;;;;;;;;;;;;;;;10509204;28;19924;-75
2023/10/12 11:59:35;;;;;;;;;;;;;;;;;;10519496;28;19979;-74
2023/10/12 12:04:40;;;;;;;;;;;;;;;;;;10506933;28;20367;-74
2023/10/12 12:10:00;;;;;;;;;;;;;;;;;;10512233;28;19947;-74
2023/10/12 12:15:03;;;;;;;;;;;;;;;;;;10514208;28;19964;-72
2023/10/12 12:20:08;;;;;;;;;;;;;;;;;;10511881;28;19984;-72
2023/10/12 12:25:18;;;;;;;;;;;;;;;;;;10514763;28;20373;-75
2023/10/12 12:30:30;;;;;;;;;;;;;;;;;;10510479;28;20631;-74
2023/10/12 12:35:59;;;;;;;;;;;;;;;;;;10511600;28;19924;-76
2023/10/12 12:41:05;;;;;;;;;;;;;;;;;;10507086;28;19928;-73
2023/10/12 12:46:10;;;;;;;;;;;;;;;;;;10509132;28;19928;-73
2023/10/12 12:51:14;;;;;;;;;;;;;;;;;;10500177;28;19930;-75
2023/10/12 12:56:17;;;;;;;;;;;;;;;;;;10511276;28;19981;-74
2023/10/12 13:01:23;;;;;;;;;;;;;;;;;;10509249;28;19932;-73
2023/10/12 13:06:26;;;;;;;;;;;;;;;;;;10508647;28;19989;-73
2023/10/12 13:11:29;;;;;;;;;;;;;;;;;;10508515;28;19926;-73
2023/10/12 13:16:31;;;;;;;;;;;;;;;;;;10505753;28;19932;-74
2023/10/12 13:21:35;;;;;;;;;;;;;;;;;;10502481;28;19920;-74
2023/10/12 13:26:43;;;;;;;;;;;;;;;;;;10505823;28;19928;-74
2023/10/12 13:31:46;;;;;;;;;;;;;;;;;;10505445;28;19928;-75
2023/10/12 13:36:49;;;;;;;;;;;;;;;;;;10511014;28;20407;-75
2023/10/12 13:41:51;;;;;;;;;;;;;;;;;;10505182;28;20442;-74
2023/10/12 13:46:54;;;;;;;;;;;;;;;;;;10499942;28;19943;-75
2023/10/12 13:52:17;;;;;;;;;;;;;;;;;;10506996;28;19924;-75
2023/10/12 13:57:33;;;;;;;;;;;;;;;;;;10509010;28;20019;-74
2023/10/12 14:02:36;;;;;;;;;;;;;;;;;;10514072;28;19924;-74
2023/10/12 14:07:39;;;;;;;;;;;;;;;;;;10509477;28;20001;-75
2023/10/12 14:12:41;;;;;;;;;;;;;;;;;;10502364;28;20018;-73
2023/10/12 14:17:44;;;;;;;;;;;;;;;;;;10512625;28;19982;-75
2023/10/12 14:22:46;;;;;;;;;;;;;;;;;;10518118;28;20016;-74
2023/10/12 14:27:49;;;;;;;;;;;;;;;;;;10512755;28;19921;-73
2023/10/12 14:32:52;;;;;;;;;;;;;;;;;;10522795;28;20023;-74
2023/10/12 14:37:56;;;;;;;;;;;;;;;;;;10523028;28;19932;-74
2023/10/12 14:43:05;;;;;;;;;;;;;;;;;;10516687;28;19920;-74
2023/10/12 14:48:10;;;;;;;;;;;;;;;;;;10519017;28;19924;-74
2023/10/12 14:53:15;;;;;;;;;;;;;;;;;;10517428;28;20296;-74
2023/10/12 14:58:18;;;;;;;;;;;;;;;;;;10511157;28;19981;-75
2023/10/12 15:03:21;;;;;;;;;;;;;;;;;;10517808;28;19957;-74
2023/10/12 15:08:25;;;;;;;;;;;;;;;;;;10515662;28;19939;-74
2023/10/12 15:13:28;;;;;;;;;;;;;;;;;;10512564;28;20058;-73
2023/10/12 15:18:30;;;;;;;;;;;;;;;;;;10515402;28;19924;-75
2023/10/12 15:23:34;;;;;;;;;;;;;;;;;;10511009;28;19971;-74
2023/10/12 15:28:37;;;;;;;;;;;;;;;;;;10510637;28;19928;-74
2023/10/12 15:33:39;;;;;;;;;;;;;;;;;;10511238;28;19952;-75
2023/10/12 15:38:42;;;;;;;;;;;;;;;;;;10516073;28;20027;-77
2023/10/12 15:43:44;;;;;;;;;;;;;;;;;;10518113;28;20203;-75
2023/10/12 15:48:47;;;;;;;;;;;;;;;;;;10512643;28;19956;-75
2023/10/12 15:53:51;;;;;;;14.45;3.25;;;;;;;;;;10428921;28;77840;-78
2023/10/12 15:58:54;;;;;;;12.47;4.07;;;;;;;;;;10348480;28;20469;-75
2023/10/12 16:03:57;;;;;;;11.48;3.20;;;;;;;;;;10358249;28;20129;-74
2023/10/12 16:09:04;;;;;;;9.68;3.13;;;;;;;;;;10351726;28;20041;-74
2023/10/12 16:14:07;;;;;;;9.20;3.20;;;;;;;;;;10361007;28;20033;-75
2023/10/12 16:19:12;;;;;;;6.50;2.63;;;;;;;;;;10359701;28;20538;-73
2023/10/12 16:24:16;;;;;;;8.43;2.95;;;;;;;;;;10357680;28;20053;-75
2023/10/12 16:29:20;;;;;;;10.82;3.90;;;;;;;;;;10362608;28;20049;-74
2023/10/12 16:34:22;;;;;;;9.35;3.40;;;;;;;;;;10357077;28;20099;-74
2023/10/12 16:39:27;;;;;;;5.60;2.53;;;;;;;;;;10356372;28;20058;-73
2023/10/12 16:44:30;;;;;;;8.32;3.35;;;;;;;;;;10355078;28;20467;-75
2023/10/12 16:49:33;;;;;;;10.63;3.22;;;;;;;;;;10356684;28;20045;-75
2023/10/12 16:54:37;;;;;;;8.93;3.53;;;;;;;;;;10374181;28;20398;-75
2023/10/12 16:59:41;;;;;;;6.72;2.25;;;;;;;;;;10356772;28;20070;-74
2023/10/12 17:04:46;;;;;;;5.15;2.45;;;;;;;;;;10356621;28;20549;-73
2023/10/12 17:09:50;;;;;;;13.30;3.25;;;;;;;;;;10359356;28;20041;-74
2023/10/12 17:14:53;;;;;;;8.27;3.30;;;;;;;;;;10359902;28;20080;-77
2023/10/12 17:19:56;;;;;;;9.05;3.15;;;;;;;;;;10358781;28;20092;-73
2023/10/12 17:25:03;;;;;;;11.30;3.80;;;;;;;;;;10358782;28;20078;-73
2023/10/12 17:30:07;;;;;;;8.50;3.25;;;;;;;;;;10360888;28;20053;-75
2023/10/12 17:35:12;;;;;;;9.43;2.20;;;;;;;;;;10354172;28;20129;-75
2023/10/12 17:40:17;;;;;;;7.78;2.95;;;;;;;;;;10357006;28;20061;-75
2023/10/12 17:45:20;;;;;;;8.05;3.50;;;;;;;;;;10361442;28;20523;-74
2023/10/12 17:50:23;;;;;;;6.55;2.60;;;;;;;;;;10354685;28;20050;-73
2023/10/12 17:55:27;;;;;;;6.32;2.50;;;;;;;;;;10354078;28;20535;-72
2023/10/12 18:00:30;;;;;;;5.15;2.53;;;;;;;;;;10365498;28;20046;-74
2023/10/12 18:05:35;;;;;;;6.90;2.90;;;;;;;;;;10363925;28;20490;-74
2023/10/12 18:10:43;;;;;;;5.50;2.70;;;;;;;;;;10365715;28;20108;-74
2023/10/12 18:15:47;;;;;;;13.50;2.63;;;;;;;;;;10358603;28;20046;-75
2023/10/12 18:20:51;;;;;;;9.32;2.70;;;;;;;;;;10366830;28;20103;-75
2023/10/12 18:25:55;;;;;;;7.30;2.97;;;;;;;;;;10366772;28;20084;-74
2023/10/12 18:30:58;;;;;;;6.70;2.78;;;;;;;;;;10362737;28;20066;-76
2023/10/12 18:36:01;;;;;;;;;;;;;;;;;;10367005;28;20506;-73
2023/10/12 18:41:05;;;;;;;7.40;2.87;;;;;;;;;;10358305;28;19922;-75
2023/10/12 18:46:09;;;;;;;5.55;2.17;;;;;;;;;;10364866;28;20065;-74
2023/10/12 18:51:14;;;;;;;13.18;3.53;;;;;;;;;;10364267;28;20057;-78
2023/10/12 18:56:18;;;;;;;8.43;2.80;;;;;;;;;;10359666;28;20478;-73
2023/10/12 19:01:23;;;;;;;9.95;2.60;;;;;;;;;;10358876;28;20127;-73
2023/10/12 19:06:25;;;;;;;6.55;2.95;;;;;;;;;;10370698;28;20052;-75
2023/10/12 19:11:30;;;;;;;4.97;2.22;;;;;;;;;;10355944;28;20069;-75
2023/10/12 19:16:33;;;;;;;5.95;2.58;;;;;;;;;;10360749;28;20037;-75
2023/10/12 19:21:37;;;;;;;6.82;2.38;;;;;;;;;;10359752;28;20042;-75
2023/10/12 19:26:42;;;;;;;11.48;2.55;;;;;;;;;;10355685;28;20498;-74
2023/10/12 19:31:45;;;;;;;7.20;2.22;;;;;;;;;;10358921;28;20062;-77
2023/10/12 19:36:48;;;;;;;4.40;2.55;;;;;;;;;;10357821;28;20046;-78
2023/10/12 19:41:52;;;;;;;;;;;;;;;;;;10357034;28;20061;-76
2023/10/12 19:46:59;;;;;;;5.07;2.10;;;;;;;;;;10356965;28;20027;-75
2023/10/12 19:52:04;;;;;;;4.05;1.92;;;;;;;;;;10356877;28;20279;-76
2023/10/12 19:57:08;;;;;;;7.07;2.00;;;;;;;;;;10354928;28;20132;-73
2023/10/12 20:02:21;;;;;;;4.63;1.88;;;;;;;;;;10355825;28;20223;-78
2023/10/12 20:07:24;;;;;;;3.40;1.38;;;;;;;;;;10360073;28;20042;-73
2023/10/12 20:12:26;;;;;;;9.60;2.75;;;;;;;;;;10358080;28;20053;-75
2023/10/12 20:17:30;;;;;;;6.97;2.17;;;;;;;;;;10352698;28;20093;-78
2023/10/12 20:22:34;;;;;;;3.30;1.80;;;;;;;;;;10362273;28;20042;-75
2023/10/12 20:27:36;;;;;;;5.18;1.17;;;;;;;;;;10360077;28;20510;-76
2023/10/12 20:32:41;;;;;;;5.18;1.85;;;;;;;;;;10356518;28;20046;-71
2023/10/12 20:37:44;;;;;;;4.00;1.45;;;;;;;;;;10360223;28;20039;-73
2023/10/12 20:42:46;;;;;;;6.43;2.17;;;;;;;;;;10361757;28;20042;-71
2023/10/12 20:47:50;;;;;;;8.93;2.20;;;;;;;;;;10366278;28;20736;-72
2023/10/12 20:52:56;;;;;;;8.95;2.45;;;;;;;;;;10357218;28;20665;-72
2023/10/12 20:57:59;;;;;;;7.57;2.53;;;;;;;;;;10360724;28;20069;-73
2023/10/12 21:03:10;;;;;;;5.47;2.25;;;;;;;;;;10362891;28;20473;-72
2023/10/12 21:08:19;;;;;;;10.40;2.53;;;;;;;;;;10365533;28;20477;-73
2023/10/12 21:13:25;;;;;;;5.22;2.03;;;;;;;;;;10363791;28;20066;-73
2023/10/12 21:18:34;;;;;;;6.90;2.50;;;;;;;;;;10362020;28;20053;-73
2023/10/12 21:23:47;;;;;;;6.07;2.05;;;;;;;;;;10358708;28;20050;-73
2023/10/12 21:28:54;;;;;;;4.55;2.05;;;;;;;;;;10362317;28;20129;-72
2023/10/12 21:33:59;;;;;;;8.75;2.42;;;;;;;;;;10357923;28;20049;-74
2023/10/12 21:39:09;;;;;;;7.85;2.30;;;;;;;;;;10360968;28;20041;-71
2023/10/12 21:44:13;;;;;;;4.90;1.88;;;;;;;;;;10366767;28;20049;-71
2023/10/12 21:49:19;;;;;;;8.18;2.45;;;;;;;;;;10358790;28;20092;-72
2023/10/12 21:54:22;;;;;;;6.75;2.38;;;;;;;;;;10355430;28;20491;-72
2023/10/12 21:59:24;;;;;;;5.90;2.37;;;;;;;;;;10356599;28;20553;-71
2023/10/12 22:04:30;;;;;;;4.40;1.70;;;;;;;;;;10360034;28;20570;-71
2023/10/12 22:09:35;;;;;;;6.40;2.03;;;;;;;;;;10358133;28;20525;-71
2023/10/12 22:19:58;;;;;;;8.05;1.80;;;;;;;;;;10353786;28;20034;-75
2023/10/12 22:25:01;;;;;;;6.97;2.33;;;;;;;;;;10349389;28;20414;-73
2023/10/12 22:30:04;;;;;;;4.35;1.80;;;;;;;;;;10354491;28;20034;-74
2023/10/12 22:35:10;;;;;;;6.43;2.40;;;;;;;;;;10348432;28;20046;-73
2023/10/12 22:40:14;;;;;;;8.18;2.45;;;;;;;;;;10350718;28;20188;-73
2023/10/12 22:45:19;;;;;;;4.50;2.38;;;;;;;;;;10356899;28;20112;-74
2023/10/12 22:50:23;;;;;;;3.83;2.28;;;;;;;;;;10367232;28;20049;-74
2023/10/12 22:55:26;;;;;;;4.25;2.22;;;;;;;;;;10353135;28;20041;-73
2023/10/12 23:00:29;;;;;;;2.63;1.33;;;;;;;;;;10360985;28;20115;-74
2023/10/12 23:05:33;;;;;;;6.03;2.07;;;;;;;;;;10361849;28;20052;-73
2023/10/12 23:10:39;;;;;;;6.78;2.20;;;;;;;;;;10381360;28;20057;-72
2023/10/12 23:15:44;;;;;;;7.38;1.48;;;;;;;;;;10357840;28;20099;-72
2023/10/12 23:21:01;;;;;;;6.80;2.30;;;;;;;;;;10362598;28;20547;-73
2023/10/12 23:26:04;;;;;;;7.95;2.65;;;;;;;;;;10351691;28;20455;-73
2023/10/12 23:31:12;;;;;;;5.10;2.23;;;;;;;;;;10363760;28;20049;-73
2023/10/12 23:36:17;;;;;;;5.43;2.00;;;;;;;;;;10361180;28;20045;-73
2023/10/12 23:41:23;;;;;;;7.68;2.10;;;;;;;;;;10360696;28;20050;-73
2023/10/12 23:46:33;;;;;;;3.80;1.50;;;;;;;;;;10356110;28;20091;-73
2023/10/12 23:51:37;;;;;;;7.35;2.25;;;;;;;;;;10357520;28;20042;-73
2023/10/12 23:56:41;;;;;;;5.07;2.13;;;;;;;;;;10349965;28;20450;-74
